Time;durP1;ratioP1;P1;durP2;ratioP2;P2;SDS_P1;SDS_P2;PMS_P1;PMS_P2;Temp;Humidity;BMP_temperature;BMP_pressure;BME280_temperature;BME280_humidity;BME280_pressure;Samples;Min_cycle;Max_cycle;Signal;HPM_P1;HPM_P2
2020/12/15 00:00:22;;;;;;;7.93;3.33;;;10.80;99.90;;;;;;4994775;28;20411;-85
2020/12/15 00:02:48;;;;;;;5.60;3.53;;;10.80;99.90;;;;;;4995631;28;20065;-84
2020/12/15 00:05:13;;;;;;;6.97;3.45;;;10.80;99.90;;;;;;4994592;28;20045;-87
2020/12/15 00:07:39;;;;;;;5.90;3.88;;;10.80;99.90;;;;;;4993862;28;20022;-87
2020/12/15 00:10:05;;;;;;;6.40;3.92;;;10.80;99.90;;;;;;4988516;28;20062;-83
2020/12/15 00:12:30;;;;;;;10.48;4.55;;;10.70;99.90;;;;;;4974259;28;20082;-84
2020/12/15 00:14:56;;;;;;;9.52;4.75;;;10.70;99.90;;;;;;4990319;28;20088;-83
2020/12/15 00:17:22;;;;;;;7.05;4.18;;;10.70;99.90;;;;;;4992139;28;20023;-86
2020/12/15 00:19:48;;;;;;;6.95;4.57;;;10.70;99.90;;;;;;4997376;28;20126;-84
2020/12/15 00:22:14;;;;;;;10.20;5.28;;;10.70;99.90;;;;;;4990427;28;20036;-84
2020/12/15 00:24:39;;;;;;;12.50;4.68;;;10.60;99.90;;;;;;4993153;28;20402;-84
2020/12/15 00:27:05;;;;;;;8.63;5.25;;;10.70;99.90;;;;;;4997846;28;20090;-83
2020/12/15 00:29:31;;;;;;;10.68;4.93;;;10.70;99.90;;;;;;4997368;28;20030;-84
2020/12/15 00:31:56;;;;;;;5.97;4.65;;;10.70;99.90;;;;;;4991586;28;20039;-84
2020/12/15 00:34:22;;;;;;;4.72;4.28;;;10.80;99.90;;;;;;5000790;28;20033;-83
2020/12/15 00:36:47;;;;;;;9.15;5.50;;;10.70;99.90;;;;;;5000222;28;20018;-83
2020/12/15 00:39:13;;;;;;;10.18;5.35;;;10.70;99.90;;;;;;5014227;28;20061;-84
2020/12/15 00:41:39;;;;;;;10.00;5.28;;;10.70;99.90;;;;;;5010316;28;20039;-84
2020/12/15 00:44:04;;;;;;;7.32;5.40;;;10.70;99.90;;;;;;5006379;28;20041;-85
2020/12/15 00:46:30;;;;;;;19.33;5.85;;;10.80;99.90;;;;;;5009571;28;20041;-84
2020/12/15 00:48:56;;;;;;;8.80;5.40;;;10.70;99.90;;;;;;5015424;28;20077;-84
2020/12/15 00:51:22;;;;;;;8.43;5.90;;;10.70;99.90;;;;;;5015565;28;20034;-84
2020/12/15 00:53:48;;;;;;;12.13;6.55;;;10.80;99.90;;;;;;5008724;28;20542;-84
2020/12/15 00:56:15;;;;;;;8.63;5.18;;;10.70;99.90;;;;;;4995414;28;20046;-84
2020/12/15 00:58:41;;;;;;;10.95;6.25;;;10.70;99.90;;;;;;4986294;28;20050;-84
2020/12/15 01:01:08;;;;;;;11.20;6.05;;;10.60;99.90;;;;;;4996909;28;20030;-84
2020/12/15 01:03:34;;;;;;;9.48;6.18;;;10.60;99.90;;;;;;4993696;28;20123;-84
2020/12/15 01:06:00;;;;;;;8.30;5.95;;;10.60;99.90;;;;;;4995202;28;20034;-84
2020/12/15 01:08:25;;;;;;;13.05;7.50;;;10.60;99.90;;;;;;4984469;28;20383;-84
2020/12/15 01:10:54;;;;;;;10.63;6.70;;;10.60;99.90;;;;;;4989962;28;20030;-84
2020/12/15 01:13:20;;;;;;;12.48;7.32;;;10.50;99.90;;;;;;4992291;28;20471;-84
2020/12/15 01:15:46;;;;;;;8.10;6.40;;;10.40;99.90;;;;;;4994655;28;20042;-84
2020/12/15 01:18:11;;;;;;;12.88;6.60;;;10.40;99.90;;;;;;4985408;28;20034;-84
2020/12/15 01:20:37;;;;;;;10.52;6.53;;;10.40;99.90;;;;;;4987049;28;20391;-84
2020/12/15 01:23:03;;;;;;;14.60;7.82;;;10.40;99.90;;;;;;4990434;28;20026;-84
2020/12/15 01:25:30;;;;;;;11.55;7.20;;;10.40;99.90;;;;;;4991002;28;20101;-84
2020/12/15 01:27:56;;;;;;;12.67;7.47;;;10.30;99.90;;;;;;4985169;28;20440;-83
2020/12/15 01:30:22;;;;;;;9.75;6.63;;;10.40;99.90;;;;;;4992994;28;20027;-84
2020/12/15 01:32:47;;;;;;;12.40;8.25;;;10.30;99.90;;;;;;4988965;28;20130;-84
2020/12/15 01:35:13;;;;;;;13.65;8.02;;;10.20;99.90;;;;;;4977778;28;20557;-84
2020/12/15 01:37:38;;;;;;;11.55;7.13;;;10.30;99.90;;;;;;4963861;28;20034;-84
2020/12/15 01:40:05;;;;;;;12.15;7.28;;;10.20;99.90;;;;;;4977154;28;20414;-84
2020/12/15 01:42:30;;;;;;;10.95;6.95;;;10.20;99.90;;;;;;4996384;28;20038;-85
2020/12/15 01:44:56;;;;;;;11.25;6.88;;;10.20;99.90;;;;;;4988739;28;20053;-83
2020/12/15 01:47:22;;;;;;;9.05;6.50;;;10.10;99.90;;;;;;4983986;28;20035;-84
2020/12/15 01:49:48;;;;;;;10.98;6.55;;;10.20;99.90;;;;;;4978964;28;20489;-84
2020/12/15 01:52:14;;;;;;;10.43;6.90;;;10.20;99.90;;;;;;4989384;28;20066;-84
2020/12/15 01:54:41;;;;;;;11.88;7.50;;;10.20;99.90;;;;;;4988315;28;20483;-84
2020/12/15 01:57:07;;;;;;;10.13;7.07;;;10.10;99.90;;;;;;4986352;28;20038;-84
2020/12/15 01:59:33;;;;;;;9.95;6.68;;;10.20;99.90;;;;;;4977931;28;20093;-84
2020/12/15 02:01:58;;;;;;;10.18;6.60;;;10.20;99.90;;;;;;4969783;28;20042;-84
2020/12/15 02:04:24;;;;;;;10.43;6.57;;;10.20;99.90;;;;;;4988334;28;20133;-85
2020/12/15 02:06:51;;;;;;;14.70;7.10;;;10.20;99.90;;;;;;4976371;28;20355;-84
2020/12/15 02:09:18;;;;;;;7.93;6.35;;;10.20;99.90;;;;;;4993935;28;20125;-84
2020/12/15 02:11:44;;;;;;;10.90;6.80;;;10.20;99.90;;;;;;4993379;28;20107;-86
2020/12/15 02:14:11;;;;;;;11.43;7.55;;;10.20;99.90;;;;;;4994861;28;20054;-85
2020/12/15 02:16:39;;;;;;;9.70;6.00;;;10.20;99.90;;;;;;4992824;28;20033;-87
2020/12/15 02:19:05;;;;;;;17.05;7.25;;;10.20;99.90;;;;;;4985412;28;20018;-90
2020/12/15 02:21:31;;;;;;;10.65;6.38;;;10.20;99.90;;;;;;4990733;28;20050;-90
2020/12/15 02:23:56;;;;;;;10.85;6.88;;;10.30;99.90;;;;;;4992264;28;20154;-90
2020/12/15 02:26:22;;;;;;;10.35;6.50;;;10.20;99.90;;;;;;4976942;28;20030;-89
2020/12/15 02:28:49;;;;;;;9.10;6.65;;;10.30;99.90;;;;;;4983237;28;20026;-90
2020/12/15 02:31:15;;;;;;;15.32;6.82;;;10.30;99.90;;;;;;4995537;28;20500;-89
2020/12/15 02:33:40;;;;;;;9.93;6.57;;;10.30;99.90;;;;;;4987897;28;20102;-90
2020/12/15 02:36:06;;;;;;;11.15;6.13;;;10.40;99.90;;;;;;4980346;28;20498;-90
2020/12/15 02:38:32;;;;;;;10.85;6.55;;;10.40;99.90;;;;;;4976556;28;20065;-89
2020/12/15 02:40:58;;;;;;;7.55;5.38;;;10.30;99.90;;;;;;4989482;28;20058;-90
2020/12/15 02:43:23;;;;;;;12.65;5.65;;;10.30;99.90;;;;;;4977329;28;20049;-89
2020/12/15 02:45:49;;;;;;;12.85;7.95;;;10.30;99.90;;;;;;4984223;28;20483;-87
2020/12/15 02:48:14;;;;;;;7.10;5.82;;;10.30;99.90;;;;;;4976759;28;20015;-89
2020/12/15 02:50:40;;;;;;;9.55;6.97;;;10.20;99.90;;;;;;4985251;28;20495;-88
2020/12/15 02:53:06;;;;;;;12.10;6.68;;;10.20;99.90;;;;;;4989614;28;20516;-87
2020/12/15 02:55:31;;;;;;;8.50;6.20;;;10.20;99.90;;;;;;4996431;28;20030;-86
2020/12/15 02:57:57;;;;;;;8.48;6.53;;;10.20;99.90;;;;;;4997465;28;20049;-86
2020/12/15 03:00:22;;;;;;;12.98;6.68;;;10.10;99.90;;;;;;4988074;28;20540;-86
2020/12/15 03:02:48;;;;;;;10.07;5.82;;;10.20;99.90;;;;;;4990090;28;20105;-87
2020/12/15 03:05:15;;;;;;;9.15;5.80;;;10.10;99.90;;;;;;4985235;28;20142;-87
2020/12/15 03:07:40;;;;;;;9.65;6.43;;;10.10;99.90;;;;;;5003524;28;20029;-87
2020/12/15 03:10:07;;;;;;;12.07;6.78;;;10.20;99.90;;;;;;5007102;28;20031;-87
2020/12/15 03:12:33;;;;;;;10.30;6.10;;;10.20;99.90;;;;;;5002617;28;20066;-87
2020/12/15 03:14:59;;;;;;;10.13;6.63;;;10.20;99.90;;;;;;5007443;28;20027;-87
2020/12/15 03:17:24;;;;;;;7.95;5.82;;;10.20;99.90;;;;;;4998700;28;20030;-88
2020/12/15 03:19:50;;;;;;;11.60;5.97;;;10.20;99.90;;;;;;5004958;28;20141;-86
2020/12/15 03:22:16;;;;;;;9.10;6.28;;;10.20;99.90;;;;;;5000452;28;20025;-87
2020/12/15 03:24:42;;;;;;;11.38;6.53;;;10.20;99.90;;;;;;5018276;28;20061;-86
2020/12/15 03:27:08;;;;;;;11.32;7.03;;;10.20;99.90;;;;;;5013530;28;20090;-86
2020/12/15 03:29:33;;;;;;;14.02;6.30;;;10.20;99.90;;;;;;5003859;28;20042;-86
2020/12/15 03:31:59;;;;;;;11.57;6.43;;;10.20;99.90;;;;;;5003490;28;20025;-87
2020/12/15 03:34:25;;;;;;;12.25;6.20;;;10.20;99.90;;;;;;4997272;28;20038;-87
2020/12/15 03:36:51;;;;;;;13.40;7.70;;;10.20;99.90;;;;;;4989993;28;20469;-87
2020/12/15 03:39:16;;;;;;;10.82;6.53;;;10.20;99.90;;;;;;4997473;28;20065;-87
2020/12/15 03:41:42;;;;;;;11.90;6.78;;;10.30;99.90;;;;;;4997835;28;20418;-86
2020/12/15 03:44:08;;;;;;;8.10;6.38;;;10.30;99.90;;;;;;4979699;28;20089;-86
2020/12/15 03:46:33;;;;;;;10.40;6.15;;;10.30;99.90;;;;;;4981171;28;20035;-85
2020/12/15 03:48:59;;;;;;;10.20;6.22;;;10.30;99.90;;;;;;4995027;28;20126;-86
2020/12/15 03:51:25;;;;;;;11.25;6.45;;;10.30;99.90;;;;;;4993017;28;20023;-86
2020/12/15 03:53:50;;;;;;;9.40;6.20;;;10.30;99.90;;;;;;4992859;28;20030;-86
2020/12/15 03:56:16;;;;;;;11.93;7.60;;;10.40;99.90;;;;;;4993290;28;20053;-86
2020/12/15 03:58:42;;;;;;;10.40;7.13;;;10.40;99.90;;;;;;4987279;28;20038;-87
2020/12/15 04:01:07;;;;;;;11.13;6.93;;;10.40;99.90;;;;;;4995527;28;20383;-86
2020/12/15 04:03:33;;;;;;;12.30;6.70;;;10.40;99.90;;;;;;4988104;28;20517;-86
2020/12/15 04:05:59;;;;;;;10.27;6.38;;;10.40;99.90;;;;;;4994197;28;20030;-86
2020/12/15 04:08:25;;;;;;;14.68;7.20;;;10.40;99.90;;;;;;4987322;28;20023;-85
2020/12/15 04:10:52;;;;;;;11.32;6.35;;;10.40;99.90;;;;;;4994933;28;20069;-86
2020/12/15 04:13:18;;;;;;;10.43;6.85;;;10.40;99.90;;;;;;5003052;28;20490;-86
2020/12/15 04:15:45;;;;;;;12.60;7.40;;;10.40;99.90;;;;;;4992502;28;20380;-86
2020/12/15 04:18:10;;;;;;;11.10;7.15;;;10.40;99.90;;;;;;5000950;28;20037;-86
2020/12/15 04:20:36;;;;;;;9.93;6.70;;;10.40;99.90;;;;;;5002316;28;20025;-85
2020/12/15 04:23:02;;;;;;;9.68;6.40;;;10.30;99.90;;;;;;4994061;28;20077;-86
2020/12/15 04:25:27;;;;;;;10.25;7.22;;;10.40;99.90;;;;;;4999845;28;20402;-86
2020/12/15 04:27:53;;;;;;;10.80;6.53;;;10.30;99.90;;;;;;5003244;28;20029;-86
2020/12/15 04:30:19;;;;;;;9.05;6.50;;;10.40;99.90;;;;;;4989007;28;20022;-86
2020/12/15 04:32:48;;;;;;;8.90;6.28;;;10.40;99.90;;;;;;4982416;28;20019;-85
2020/12/15 04:35:14;;;;;;;8.30;6.05;;;10.30;99.90;;;;;;4990655;28;20096;-85
2020/12/15 04:37:40;;;;;;;10.38;5.95;;;10.30;99.90;;;;;;4977356;28;20018;-86
2020/12/15 04:40:06;;;;;;;12.93;7.55;;;10.40;99.90;;;;;;4975865;28;20027;-85
2020/12/15 04:42:34;;;;;;;8.27;6.03;;;10.30;99.90;;;;;;4993267;28;20403;-84
2020/12/15 04:45:00;;;;;;;8.60;6.28;;;10.40;99.90;;;;;;4975413;28;20023;-86
2020/12/15 04:47:41;;;;;;;8.50;6.32;;;10.40;99.90;;;;;;4986451;28;20037;-85
2020/12/15 04:50:12;;;;;;;9.50;6.25;;;10.30;99.90;;;;;;4976519;28;20035;-86
2020/12/15 04:52:44;;;;;;;10.25;5.97;;;10.40;99.90;;;;;;4984884;28;20467;-85
2020/12/15 04:55:12;;;;;;;10.30;5.97;;;10.30;99.90;;;;;;4994242;28;20030;-86
2020/12/15 04:57:39;;;;;;;8.00;5.68;;;10.40;99.90;;;;;;4991656;28;20043;-87
2020/12/15 05:00:07;;;;;;;8.55;5.75;;;10.40;99.90;;;;;;4988579;28;20034;-88
2020/12/15 05:02:39;;;;;;;9.45;6.80;;;10.40;99.90;;;;;;4980026;28;20030;-87
2020/12/15 05:05:05;;;;;;;9.95;7.40;;;10.40;99.90;;;;;;4986650;28;20034;-86
2020/12/15 05:07:40;;;;;;;9.52;6.20;;;10.40;99.90;;;;;;4997385;28;20076;-86
2020/12/15 05:10:11;;;;;;;9.90;6.40;;;10.40;99.90;;;;;;4997877;28;20138;-87
2020/12/15 05:12:37;;;;;;;8.68;6.32;;;10.40;99.90;;;;;;4985861;28;20154;-87
2020/12/15 05:15:09;;;;;;;8.88;5.68;;;10.40;99.90;;;;;;4992735;28;20149;-87
2020/12/15 05:17:35;;;;;;;8.18;5.80;;;10.30;99.90;;;;;;5004775;28;20467;-88
2020/12/15 05:20:06;;;;;;;12.63;6.20;;;10.40;99.90;;;;;;4987396;28;20023;-88
2020/12/15 05:22:41;;;;;;;8.70;5.97;;;10.40;99.90;;;;;;4991834;28;20109;-87
2020/12/15 05:25:08;;;;;;;10.75;5.97;;;10.30;99.90;;;;;;4979903;28;20519;-86
2020/12/15 05:27:40;;;;;;;7.22;5.60;;;10.40;99.90;;;;;;4989984;28;20117;-86
2020/12/15 05:30:10;;;;;;;13.95;6.40;;;10.40;99.90;;;;;;4997455;28;20030;-86
2020/12/15 05:32:46;;;;;;;8.60;5.47;;;10.30;99.90;;;;;;4997897;28;20026;-86
2020/12/15 05:35:11;;;;;;;9.50;5.65;;;10.40;99.90;;;;;;4996584;28;20030;-86
2020/12/15 05:37:43;;;;;;;12.20;5.40;;;10.40;99.90;;;;;;4998151;28;20081;-87
2020/12/15 05:40:08;;;;;;;9.85;5.63;;;10.30;99.90;;;;;;5003123;28;20094;-87
2020/12/15 05:42:36;;;;;;;8.73;5.60;;;10.40;99.90;;;;;;5009084;28;20022;-87
2020/12/15 05:45:04;;;;;;;10.20;5.28;;;10.40;99.90;;;;;;5009894;28;20030;-87
2020/12/15 05:47:31;;;;;;;8.80;4.90;;;10.40;99.90;;;;;;5013912;28;20102;-87
2020/12/15 05:49:58;;;;;;;11.03;5.27;;;10.40;99.90;;;;;;5002189;28;20015;-88
2020/12/15 05:52:28;;;;;;;8.30;3.92;;;10.40;99.90;;;;;;5032963;28;20300;-86
2020/12/15 05:55:15;;;;;;;7.88;5.10;;;10.40;99.90;;;;;;5014820;28;20026;-87
2020/12/15 05:57:44;;;;;;;9.75;5.00;;;10.40;99.90;;;;;;5020384;28;20091;-89
2020/12/15 06:00:13;;;;;;;8.32;5.35;;;10.40;99.90;;;;;;5014409;28;20038;-88
2020/12/15 06:02:40;;;;;;;7.85;4.68;;;10.40;99.90;;;;;;5019764;28;20082;-89
2020/12/15 06:05:06;;;;;;;11.23;7.38;;;10.40;99.90;;;;;;4993086;28;20031;-88
2020/12/15 06:07:33;;;;;;;8.10;5.03;;;10.40;99.90;;;;;;4996379;28;20035;-87
2020/12/15 06:10:00;;;;;;;8.25;5.00;;;10.30;99.90;;;;;;4991888;28;20031;-88
2020/12/15 06:12:26;;;;;;;5.78;4.45;;;10.30;99.90;;;;;;5001760;28;20050;-88
2020/12/15 06:18:52;;;;;;;7.25;4.88;;;10.40;99.90;;;;;;4884715;29;20062;-90
2020/12/15 06:21:18;;;;;;;6.80;5.05;;;10.30;99.90;;;;;;4940799;29;20051;-88
2020/12/15 06:23:44;;;;;;;6.38;4.45;;;10.40;99.90;;;;;;4968530;28;20038;-89
2020/12/15 06:26:10;;;;;;;6.95;4.88;;;10.30;99.90;;;;;;4993346;28;20493;-88
2020/12/15 06:28:35;;;;;;;8.38;5.15;;;10.30;99.90;;;;;;4993029;28;20021;-87
2020/12/15 06:31:01;;;;;;;11.35;5.43;;;10.30;99.90;;;;;;4988475;28;20053;-88
2020/12/15 06:33:35;;;;;;;14.70;5.85;;;10.30;99.90;;;;;;4997330;28;20056;-89
2020/12/15 06:36:01;;;;;;;9.95;4.72;;;10.30;99.90;;;;;;4985173;28;20122;-87
2020/12/15 06:38:27;;;;;;;9.07;5.13;;;10.40;99.90;;;;;;4994805;28;20105;-87
2020/12/15 06:40:53;;;;;;;7.30;4.75;;;10.40;99.90;;;;;;4997672;28;20560;-88
2020/12/15 06:43:29;;;;;;;9.82;5.13;;;10.40;99.90;;;;;;4996981;28;20030;-88
2020/12/15 06:46:10;;;;;;;8.43;5.53;;;10.40;99.90;;;;;;4986784;28;20019;-86
2020/12/15 06:48:39;;;;;;;12.35;4.95;;;10.30;99.90;;;;;;4996486;28;20030;-88
2020/12/15 06:51:05;;;;;;;8.13;5.55;;;10.40;99.90;;;;;;4995738;28;20123;-87
2020/12/15 06:53:31;;;;;;;9.50;5.35;;;10.40;99.90;;;;;;4995803;28;20488;-88
2020/12/15 06:56:02;;;;;;;11.00;5.70;;;10.50;99.90;;;;;;4996210;28;20093;-89
2020/12/15 06:58:28;;;;;;;8.18;4.75;;;10.40;99.90;;;;;;4997183;28;20125;-88
2020/12/15 07:00:54;;;;;;;11.00;5.07;;;10.50;99.90;;;;;;4985953;28;20049;-87
2020/12/15 07:03:39;;;;;;;9.18;4.97;;;10.50;99.90;;;;;;4990323;28;20026;-88
2020/12/15 07:06:09;;;;;;;10.98;4.90;;;10.50;99.90;;;;;;4987663;28;20027;-84
2020/12/15 07:08:35;;;;;;;15.38;5.82;;;10.50;99.90;;;;;;4997133;28;20035;-85
2020/12/15 07:11:01;;;;;;;9.10;5.63;;;10.50;99.90;;;;;;4995349;28;20054;-84
2020/12/15 07:13:27;;;;;;;9.00;5.68;;;10.50;99.90;;;;;;4992980;28;20034;-84
2020/12/15 07:15:52;;;;;;;9.25;5.07;;;10.50;99.90;;;;;;4991113;28;20031;-86
2020/12/15 07:18:18;;;;;;;9.50;5.45;;;10.50;99.90;;;;;;4998190;28;20030;-85
2020/12/15 07:20:44;;;;;;;7.72;5.07;;;10.50;99.90;;;;;;4993741;28;20038;-85
2020/12/15 07:23:10;;;;;;;9.25;5.45;;;10.50;99.90;;;;;;4982675;28;20514;-84
2020/12/15 07:25:35;;;;;;;8.50;4.80;;;10.50;99.90;;;;;;4989716;28;20069;-86
2020/12/15 07:28:02;;;;;;;9.43;5.25;;;10.40;99.90;;;;;;4992888;28;20018;-84
2020/12/15 07:30:27;;;;;;;10.07;5.35;;;10.40;99.90;;;;;;4991840;28;20023;-82
2020/12/15 07:32:53;;;;;;;13.05;5.68;;;10.40;99.90;;;;;;4998906;28;20052;-82
2020/12/15 07:35:24;;;;;;;12.75;5.15;;;10.50;99.90;;;;;;5002527;28;20518;-83
2020/12/15 07:37:54;;;;;;;8.20;5.05;;;10.50;99.90;;;;;;5004682;28;20033;-81
2020/12/15 07:40:20;;;;;;;10.13;5.55;;;10.50;99.90;;;;;;5004634;28;20041;-82
2020/12/15 07:43:04;;;;;;;10.38;5.55;;;10.50;99.90;;;;;;5003914;28;20046;-83
2020/12/15 07:45:32;;;;;;;10.45;5.53;;;10.50;99.90;;;;;;4991342;28;20069;-82
2020/12/15 07:47:58;;;;;;;9.13;5.18;;;10.50;99.90;;;;;;5002568;28;20072;-82
2020/12/15 07:50:26;;;;;;;8.32;5.28;;;10.50;99.90;;;;;;5004414;28;20026;-83
2020/12/15 07:52:52;;;;;;;14.35;4.90;;;10.50;99.90;;;;;;5002834;28;20023;-83
2020/12/15 07:55:18;;;;;;;10.25;5.57;;;10.60;99.90;;;;;;5008470;28;20031;-83
2020/12/15 07:57:43;;;;;;;10.70;5.53;;;10.60;99.90;;;;;;5009137;28;20500;-83
2020/12/15 08:00:10;;;;;;;8.02;5.18;;;10.50;99.90;;;;;;5003715;28;20026;-83
2020/12/15 08:02:37;;;;;;;9.00;5.55;;;10.60;99.90;;;;;;5008179;28;20037;-82
2020/12/15 08:05:07;;;;;;;14.02;5.70;;;10.60;99.90;;;;;;5004570;28;20050;-82
2020/12/15 08:07:38;;;;;;;9.85;5.63;;;10.50;99.90;;;;;;5007395;28;20126;-82
2020/12/15 08:10:04;;;;;;;7.25;5.03;;;10.60;99.90;;;;;;5004672;28;20089;-82
2020/12/15 08:12:32;;;;;;;13.93;5.82;;;10.60;99.90;;;;;;4981148;28;20069;-82
2020/12/15 08:14:58;;;;;;;19.00;6.03;;;10.60;99.90;;;;;;4981647;28;20031;-83
2020/12/15 08:17:25;;;;;;;8.48;5.68;;;10.60;99.90;;;;;;5002542;28;20103;-82
2020/12/15 08:19:50;;;;;;;11.90;5.95;;;10.60;99.90;;;;;;5012475;28;20202;-82
2020/12/15 08:22:19;;;;;;;8.30;5.82;;;10.60;99.90;;;;;;5013376;28;20010;-82
2020/12/15 08:24:50;;;;;;;9.50;6.20;;;10.70;99.90;;;;;;5014742;28;20022;-82
2020/12/15 08:27:16;;;;;;;10.40;5.78;;;10.60;99.90;;;;;;5013982;28;20061;-83
2020/12/15 08:29:41;;;;;;;8.07;5.75;;;10.70;99.90;;;;;;5014680;28;20026;-83
2020/12/15 08:32:08;;;;;;;9.38;5.28;;;10.70;99.90;;;;;;5006772;28;20050;-83
2020/12/15 08:34:33;;;;;;;8.95;5.20;;;10.70;99.90;;;;;;5004280;28;20101;-82
2020/12/15 08:36:59;;;;;;;11.30;6.18;;;10.80;99.90;;;;;;4983221;28;20023;-83
2020/12/15 08:39:30;;;;;;;7.85;5.35;;;10.70;99.90;;;;;;4996796;28;20130;-84
2020/12/15 08:41:58;;;;;;;8.88;5.72;;;10.70;99.90;;;;;;5000821;28;20098;-82
2020/12/15 08:44:25;;;;;;;11.45;6.07;;;10.70;99.90;;;;;;5006663;28;20034;-85
2020/12/15 08:46:55;;;;;;;14.67;6.97;;;10.70;99.90;;;;;;5007061;28;20061;-83
2020/12/15 08:49:21;;;;;;;13.48;6.55;;;10.70;99.90;;;;;;5001872;28;20266;-84
2020/12/15 08:51:50;;;;;;;12.90;6.20;;;10.70;99.90;;;;;;4999134;28;20050;-83
2020/12/15 08:54:17;;;;;;;15.80;5.82;;;10.80;99.90;;;;;;4993870;28;20540;-84
2020/12/15 08:56:43;;;;;;;15.93;6.20;;;10.70;99.90;;;;;;4997040;28;20455;-82
2020/12/15 08:59:33;;;;;;;10.13;6.32;;;10.70;99.90;;;;;;4993218;28;20057;-82
2020/12/15 09:01:59;;;;;;;9.93;6.13;;;10.80;99.90;;;;;;4996431;28;20030;-83
2020/12/15 09:04:26;;;;;;;11.38;6.50;;;10.90;99.90;;;;;;5009800;28;20028;-83
2020/12/15 09:06:52;;;;;;;15.37;6.80;;;10.80;99.90;;;;;;5006467;28;20109;-83
2020/12/15 09:09:26;;;;;;;12.35;6.63;;;10.80;99.90;;;;;;5010369;28;20305;-83
2020/12/15 09:11:55;;;;;;;16.25;6.95;;;10.90;99.90;;;;;;5000297;28;20041;-83
2020/12/15 09:14:21;;;;;;;10.02;6.80;;;10.90;99.90;;;;;;5005718;28;20022;-83
2020/12/15 09:16:48;;;;;;;16.95;7.03;;;10.90;99.90;;;;;;5001975;28;20018;-83
2020/12/15 09:19:16;;;;;;;10.30;6.60;;;10.90;99.90;;;;;;5007627;28;20092;-82
2020/12/15 09:21:42;;;;;;;16.00;7.65;;;10.90;99.90;;;;;;4998737;28;20026;-83
2020/12/15 09:24:09;;;;;;;15.68;7.20;;;10.90;99.90;;;;;;5005360;28;20022;-83
2020/12/15 09:26:39;;;;;;;11.57;6.90;;;11.00;99.90;;;;;;5004488;28;20062;-83
2020/12/15 09:29:14;;;;;;;17.20;7.93;;;10.90;99.90;;;;;;4992623;28;20038;-83
2020/12/15 09:31:39;;;;;;;9.68;6.38;;;11.00;99.90;;;;;;4990785;28;20169;-82
2020/12/15 09:34:06;;;;;;;12.23;7.90;;;11.00;99.90;;;;;;4991820;28;20141;-83
2020/12/15 09:36:31;;;;;;;15.98;7.65;;;11.10;99.90;;;;;;4991433;28;20104;-83
2020/12/15 09:38:57;;;;;;;18.30;7.47;;;11.10;99.90;;;;;;4997677;28;20053;-83
2020/12/15 09:41:23;;;;;;;17.15;7.63;;;11.10;99.90;;;;;;4995301;28;20022;-81
2020/12/15 09:43:49;;;;;;;12.02;6.35;;;11.10;99.90;;;;;;4986691;28;20026;-84
2020/12/15 09:46:15;;;;;;;13.35;7.10;;;11.10;99.90;;;;;;4999043;28;20034;-83
2020/12/15 09:48:41;;;;;;;13.68;6.93;;;11.20;99.90;;;;;;4990723;28;20039;-80
2020/12/15 09:51:06;;;;;;;12.80;6.95;;;11.20;99.90;;;;;;4987101;28;20525;-81
2020/12/15 09:53:32;;;;;;;14.77;7.18;;;11.30;99.90;;;;;;4995189;28;20038;-81
2020/12/15 09:55:58;;;;;;;15.68;8.18;;;11.30;99.90;;;;;;4994533;28;20065;-81
2020/12/15 09:58:28;;;;;;;10.73;6.78;;;11.30;99.90;;;;;;4994241;28;20022;-84
2020/12/15 10:00:54;;;;;;;10.23;7.20;;;11.40;99.90;;;;;;5000202;28;20022;-80
2020/12/15 10:03:19;;;;;;;11.55;6.93;;;11.30;99.90;;;;;;4998811;28;20121;-81
2020/12/15 10:05:45;;;;;;;9.90;6.50;;;11.40;99.90;;;;;;4989067;28;20034;-84
2020/12/15 10:08:11;;;;;;;11.45;6.68;;;11.40;99.90;;;;;;4999149;28;20030;-81
2020/12/15 10:10:36;;;;;;;12.63;6.97;;;11.30;99.90;;;;;;5001342;28;20399;-83
2020/12/15 10:13:02;;;;;;;14.70;7.47;;;11.20;99.90;;;;;;4999206;28;20023;-83
2020/12/15 10:15:28;;;;;;;12.55;8.30;;;11.20;99.90;;;;;;4994607;28;20032;-82
2020/12/15 10:17:53;;;;;;;12.07;7.35;;;11.20;99.90;;;;;;5005099;28;20086;-85
2020/12/15 10:20:19;;;;;;;13.30;6.70;;;11.20;99.90;;;;;;4995877;28;20534;-85
2020/12/15 10:22:45;;;;;;;15.65;7.00;;;11.20;99.90;;;;;;4988505;28;20034;-81
2020/12/15 10:25:10;;;;;;;16.98;7.60;;;11.20;99.90;;;;;;4990571;28;20470;-81
2020/12/15 10:27:36;;;;;;;12.98;7.25;;;11.20;99.90;;;;;;4987839;28;21168;-80
2020/12/15 10:30:03;;;;;;;16.63;8.07;;;11.20;99.90;;;;;;4986894;28;20065;-80
2020/12/15 10:32:28;;;;;;;17.02;7.20;;;11.20;99.90;;;;;;4985766;28;20042;-80
2020/12/15 10:34:54;;;;;;;11.55;7.85;;;11.20;99.90;;;;;;4992237;28;20064;-82
2020/12/15 10:37:23;;;;;;;13.57;7.47;;;11.30;99.90;;;;;;4994918;28;20122;-82
2020/12/15 10:39:52;;;;;;;13.48;7.50;;;11.30;99.90;;;;;;4991873;28;20052;-80
2020/12/15 10:42:18;;;;;;;10.40;7.38;;;11.30;99.90;;;;;;4991386;28;20046;-85
2020/12/15 10:44:44;;;;;;;15.48;7.60;;;11.30;99.90;;;;;;4987834;28;20092;-85
2020/12/15 10:47:10;;;;;;;16.85;8.23;;;11.30;99.90;;;;;;4994213;28;20170;-83
2020/12/15 10:49:36;;;;;;;21.27;8.95;;;11.30;99.90;;;;;;4994960;28;20387;-84
2020/12/15 10:52:02;;;;;;;15.95;9.10;;;11.30;99.90;;;;;;4992366;28;20018;-84
2020/12/15 10:54:28;;;;;;;21.33;9.48;;;11.30;99.90;;;;;;4993596;28;20023;-82
2020/12/15 10:56:54;;;;;;;15.82;8.73;;;11.40;99.90;;;;;;4989481;28;20102;-83
2020/12/15 10:59:20;;;;;;;13.00;7.95;;;11.40;99.90;;;;;;4993654;28;20451;-83
2020/12/15 11:01:52;;;;;;;12.93;7.85;;;11.40;99.90;;;;;;4993456;28;20039;-83
2020/12/15 11:04:19;;;;;;;11.73;7.97;;;11.40;99.90;;;;;;4995740;28;20502;-83
2020/12/15 11:06:45;;;;;;;14.77;8.18;;;11.40;99.90;;;;;;4994412;28;20027;-83
2020/12/15 11:09:12;;;;;;;16.17;8.38;;;11.50;99.90;;;;;;5007137;28;20018;-83
2020/12/15 11:11:38;;;;;;;15.30;8.40;;;11.40;99.90;;;;;;5005459;28;20030;-82
2020/12/15 11:14:04;;;;;;;15.88;8.13;;;11.50;99.90;;;;;;5007856;28;20022;-85
2020/12/15 11:16:30;;;;;;;17.77;7.75;;;11.50;99.90;;;;;;5014354;28;20058;-85
2020/12/15 11:18:55;;;;;;;17.55;8.38;;;11.50;99.90;;;;;;5000054;28;20011;-84
2020/12/15 11:21:21;;;;;;;16.00;8.98;;;11.50;99.90;;;;;;5004211;28;20011;-84
2020/12/15 11:23:46;;;;;;;16.15;8.05;;;11.50;99.90;;;;;;5006608;28;20023;-86
2020/12/15 11:26:16;;;;;;;13.18;8.63;;;11.50;99.90;;;;;;4999946;28;20030;-85
2020/12/15 11:28:42;;;;;;;15.15;7.85;;;11.50;99.90;;;;;;5009019;28;20062;-83
2020/12/15 11:31:08;;;;;;;18.50;8.68;;;11.50;99.90;;;;;;5011700;28;20041;-82
2020/12/15 11:33:33;;;;;;;16.02;8.18;;;11.60;99.90;;;;;;5014182;28;20034;-80
2020/12/15 11:35:59;;;;;;;15.57;8.68;;;11.50;99.90;;;;;;5010917;28;20022;-81
2020/12/15 11:38:24;;;;;;;14.45;8.70;;;11.60;99.90;;;;;;5003187;28;20406;-86
2020/12/15 11:40:50;;;;;;;14.48;9.00;;;11.50;99.90;;;;;;5002435;28;20026;-81
2020/12/15 11:43:16;;;;;;;17.83;9.07;;;11.50;99.90;;;;;;4990323;28;20027;-86
2020/12/15 11:45:41;;;;;;;13.15;7.95;;;11.50;99.90;;;;;;4996874;28;20038;-82
2020/12/15 11:48:07;;;;;;;18.38;8.73;;;11.50;99.90;;;;;;4994361;28;20105;-83
2020/12/15 11:50:32;;;;;;;12.20;8.52;;;11.50;99.90;;;;;;4994057;28;20045;-81
2020/12/15 11:52:59;;;;;;;14.15;8.85;;;11.50;99.90;;;;;;5017967;28;20027;-86
2020/12/15 11:55:25;;;;;;;17.20;9.00;;;11.50;99.90;;;;;;4992548;28;20026;-84
2020/12/15 11:57:52;;;;;;;14.57;9.23;;;11.50;99.90;;;;;;4988130;28;20042;-83
2020/12/15 12:00:18;;;;;;;17.58;8.45;;;11.50;99.90;;;;;;4990546;28;20026;-80
2020/12/15 12:02:44;;;;;;;15.85;9.60;;;11.50;99.90;;;;;;4989997;28;20022;-82
2020/12/15 12:05:10;;;;;;;21.15;8.00;;;11.40;99.90;;;;;;4989608;28;20040;-82
2020/12/15 12:07:36;;;;;;;15.50;8.60;;;11.40;99.90;;;;;;4989179;28;20430;-83
2020/12/15 12:10:02;;;;;;;30.25;9.40;;;11.40;99.90;;;;;;4988872;28;20483;-80
2020/12/15 12:12:28;;;;;;;17.80;9.32;;;11.30;99.90;;;;;;4989292;28;20030;-83
2020/12/15 12:14:54;;;;;;;16.33;9.18;;;11.30;99.90;;;;;;4989196;28;20028;-84
2020/12/15 12:17:21;;;;;;;19.65;9.00;;;11.40;99.90;;;;;;4988672;28;20030;-86
2020/12/15 12:19:48;;;;;;;17.40;9.70;;;11.40;99.90;;;;;;4993071;28;20030;-85
2020/12/15 12:22:14;;;;;;;12.83;9.53;;;11.40;99.90;;;;;;4993885;28;20038;-85
2020/12/15 12:24:41;;;;;;;27.10;9.63;;;11.40;99.90;;;;;;4995141;28;20034;-86
2020/12/15 12:27:06;;;;;;;17.60;9.52;;;11.50;99.90;;;;;;4994742;28;20466;-81
2020/12/15 12:29:32;;;;;;;14.40;9.02;;;11.50;99.90;;;;;;4996355;28;20048;-81
2020/12/15 12:31:58;;;;;;;18.45;8.40;;;11.50;99.90;;;;;;4990181;28;20033;-81
2020/12/15 12:34:23;;;;;;;16.60;8.30;;;11.50;99.90;;;;;;4994755;28;20053;-83
2020/12/15 12:36:49;;;;;;;14.32;9.10;;;11.50;99.90;;;;;;4990464;28;20042;-88
2020/12/15 12:39:15;;;;;;;15.15;9.77;;;11.50;99.90;;;;;;4991279;28;20030;-86
2020/12/15 12:41:40;;;;;;;16.10;9.52;;;11.50;99.90;;;;;;4990744;28;20123;-83